createdAt,value
2023-04-20T16:12:12.869Z,49.70
2023-04-20T16:17:17.206Z,51.20
2023-04-20T16:22:21.253Z,50.80
2023-04-20T16:27:27.471Z,50.40
2023-04-20T16:32:31.754Z,49.70
2023-04-20T16:37:36.253Z,49.40
2023-04-20T16:42:42.400Z,49.50
2023-04-20T16:47:46.578Z,47.70
2023-04-20T16:52:50.784Z,48.40
2023-04-20T16:57:59.738Z,48.10
2023-04-20T17:03:06.298Z,48.90
2023-04-20T17:08:10.610Z,50.50
2023-04-20T17:13:16.989Z,52.20
2023-04-20T17:18:21.351Z,52.90
2023-04-20T17:23:25.882Z,53.60
2023-04-20T17:28:32.176Z,54.80
2023-04-20T17:33:36.317Z,57.00
2023-04-20T17:38:40.295Z,57.40
2023-04-20T17:43:46.273Z,58.00
2023-04-20T17:48:50.445Z,58.30
2023-04-20T17:53:54.578Z,58.80
2023-04-20T17:59:00.710Z,59.30
2023-04-20T18:04:05.066Z,60.20
2023-04-20T18:09:09.700Z,63.30
2023-04-20T18:14:15.842Z,64.80
2023-04-20T18:19:19.903Z,65.70
2023-04-20T18:24:24.170Z,66.10
2023-04-20T18:29:30.802Z,66.70
2023-04-20T18:34:34.910Z,67.20
2023-04-20T18:39:39.170Z,67.50
2023-04-20T18:44:45.431Z,67.80
2023-04-20T18:49:49.530Z,68.50
2023-04-20T18:54:54.876Z,68.80
2023-04-20T19:00:01.157Z,69.40
2023-04-20T19:05:05.599Z,69.40
2023-04-20T19:10:11.752Z,70.00
2023-04-20T19:15:24.739Z,70.50
2023-04-20T19:20:29.070Z,70.80
2023-04-20T19:25:33.595Z,71.00
2023-04-20T19:30:39.774Z,71.30
2023-04-20T19:35:49.922Z,71.30
2023-04-20T19:40:54.782Z,71.10
2023-04-20T19:46:00.927Z,71.90
2023-04-20T19:51:06.269Z,71.80
2023-04-20T19:56:10.737Z,72.30
2023-04-20T20:01:16.868Z,72.40
2023-04-20T20:06:21.251Z,72.90
2023-04-20T20:11:25.279Z,73.50
2023-04-20T20:16:31.337Z,74.20
2023-04-20T20:21:35.469Z,74.70
2023-04-20T20:26:39.523Z,75.00
2023-04-20T20:31:45.667Z,75.60
2023-04-20T20:36:50.868Z,76.00
2023-04-20T20:41:56.702Z,76.80
2023-04-20T20:47:03.004Z,77.90
2023-04-20T20:52:07.936Z,79.50
2023-04-20T20:57:12.455Z,82.50
2023-04-20T21:02:19.051Z,83.60
2023-04-20T21:07:23.400Z,87.30
2023-04-20T21:12:27.558Z,88.30
